Time;durP1;ratioP1;P1;durP2;ratioP2;P2;SDS_P1;SDS_P2;PMS_P1;PMS_P2;Temp;Humidity;BMP_temperature;BMP_pressure;BME280_temperature;BME280_humidity;BME280_pressure;Samples;Min_cycle;Max_cycle;Signal;HPM_P1;HPM_P2
2021/04/17 00:01:08;;;;;;;5.72;3.95;;;4.00;99.90;;;;;;469310;247;27468;-75
2021/04/17 00:03:09;;;;;;;3.85;3.55;;;4.00;99.90;;;;;;469361;247;27611;-79
2021/04/17 00:05:11;;;;;;;3.62;3.33;;;4.00;99.90;;;;;;469359;247;27531;-76
2021/04/17 00:07:12;;;;;;;4.87;3.75;;;4.00;99.90;;;;;;469486;248;27518;-77
2021/04/17 00:09:13;;;;;;;4.50;4.10;;;3.90;99.90;;;;;;469287;247;28246;-80
2021/04/17 00:11:14;;;;;;;4.62;4.18;;;3.90;99.90;;;;;;469273;247;28246;-76
2021/04/17 00:13:16;;;;;;;4.35;3.95;;;3.90;99.90;;;;;;469376;248;27524;-77
2021/04/17 00:15:17;;;;;;;4.15;3.75;;;3.90;99.90;;;;;;469471;248;27617;-79
2021/04/17 00:17:18;;;;;;;4.00;3.60;;;3.80;99.90;;;;;;469407;247;27626;-76
2021/04/17 00:19:19;;;;;;;4.75;3.75;;;3.80;99.90;;;;;;469462;248;27582;-77
2021/04/17 00:21:20;;;;;;;5.07;3.90;;;3.80;99.90;;;;;;469440;247;27528;-77
2021/04/17 00:23:22;;;;;;;5.62;3.70;;;3.80;99.90;;;;;;469391;247;27599;-77
2021/04/17 00:25:23;;;;;;;3.80;3.33;;;3.70;99.90;;;;;;469599;247;27533;-77
2021/04/17 00:27:24;;;;;;;4.68;3.87;;;3.70;99.90;;;;;;469079;247;28162;-79
2021/04/17 00:29:25;;;;;;;3.80;3.50;;;3.60;99.90;;;;;;469344;248;28316;-77
2021/04/17 00:31:27;;;;;;;3.70;3.25;;;3.60;99.90;;;;;;469286;247;27501;-76
2021/04/17 00:33:28;;;;;;;3.83;3.30;;;3.60;99.90;;;;;;469443;247;27528;-75
2021/04/17 00:35:29;;;;;;;3.85;3.40;;;3.60;99.90;;;;;;469495;247;27506;-80
2021/04/17 00:37:30;;;;;;;4.22;3.28;;;3.60;99.90;;;;;;469391;247;27606;-77
2021/04/17 00:39:32;;;;;;;3.08;2.87;;;3.60;99.90;;;;;;469453;247;27637;-76
2021/04/17 00:41:33;;;;;;;3.62;3.33;;;3.60;99.90;;;;;;469459;247;27617;-76
2021/04/17 00:43:34;;;;;;;3.92;3.33;;;3.60;99.90;;;;;;469412;252;27562;-76
2021/04/17 00:45:35;;;;;;;3.55;3.20;;;3.50;99.90;;;;;;469422;247;28274;-77
2021/04/17 00:47:37;;;;;;;3.67;3.40;;;3.50;99.90;;;;;;469414;248;29520;-76
2021/04/17 00:49:38;;;;;;;3.75;3.45;;;3.50;99.90;;;;;;469337;247;27531;-77
2021/04/17 00:51:39;;;;;;;3.87;3.37;;;3.50;99.90;;;;;;469267;247;27572;-77
2021/04/17 00:53:40;;;;;;;3.40;3.10;;;3.50;99.90;;;;;;469347;247;27639;-76
2021/04/17 00:55:42;;;;;;;4.12;3.50;;;3.50;99.90;;;;;;469363;252;27543;-77
2021/04/17 00:57:43;;;;;;;3.72;3.30;;;3.40;99.90;;;;;;469300;247;27556;-78
2021/04/17 00:59:44;;;;;;;4.07;3.20;;;3.30;99.90;;;;;;469338;247;27593;-78
2021/04/17 01:01:45;;;;;;;3.40;3.10;;;3.30;99.90;;;;;;469278;248;27484;-77
2021/04/17 01:03:47;;;;;;;4.07;3.50;;;3.30;99.90;;;;;;469296;247;27495;-79
2021/04/17 01:05:48;;;;;;;4.75;3.62;;;3.30;99.90;;;;;;469351;247;28278;-76
2021/04/17 01:07:49;;;;;;;4.40;3.28;;;3.30;99.90;;;;;;469419;247;28301;-76
2021/04/17 01:09:50;;;;;;;3.30;3.03;;;3.30;99.90;;;;;;469364;247;28336;-76
2021/04/17 01:11:52;;;;;;;4.03;3.62;;;3.30;99.90;;;;;;469357;248;27587;-77
2021/04/17 01:13:53;;;;;;;4.03;3.55;;;3.30;99.90;;;;;;469346;247;27512;-78
2021/04/17 01:15:54;;;;;;;3.80;3.45;;;3.20;99.90;;;;;;469306;248;27537;-76
2021/04/17 01:17:55;;;;;;;3.70;3.35;;;3.20;99.90;;;;;;469349;247;27924;-76
2021/04/17 01:19:57;;;;;;;3.40;3.10;;;3.20;99.90;;;;;;469355;247;27570;-77
2021/04/17 01:21:58;;;;;;;3.50;3.20;;;3.20;99.90;;;;;;469408;247;27610;-77
2021/04/17 01:23:59;;;;;;;3.33;3.03;;;3.20;99.90;;;;;;469259;248;27513;-77
2021/04/17 01:26:00;;;;;;;5.80;3.90;;;3.20;99.90;;;;;;469287;247;27543;-76
2021/04/17 01:28:02;;;;;;;3.58;3.30;;;3.20;99.90;;;;;;469316;247;28230;-77
2021/04/17 01:30:03;;;;;;;4.12;3.70;;;3.20;99.90;;;;;;469294;252;28328;-77
2021/04/17 01:32:04;;;;;;;4.18;3.87;;;3.20;99.90;;;;;;469370;247;28278;-76
2021/04/17 01:34:05;;;;;;;4.18;3.50;;;3.20;99.90;;;;;;469363;247;27593;-77
2021/04/17 01:36:07;;;;;;;4.93;4.25;;;3.20;99.90;;;;;;469402;247;27531;-77
2021/04/17 01:38:08;;;;;;;5.82;3.80;;;3.20;99.90;;;;;;469421;247;27873;-79
2021/04/17 01:40:09;;;;;;;6.90;4.80;;;3.10;99.90;;;;;;469434;248;27641;-77
2021/04/17 01:42:10;;;;;;;4.37;3.95;;;3.10;99.90;;;;;;469381;247;27538;-77
2021/04/17 01:44:12;;;;;;;4.47;4.05;;;3.00;99.90;;;;;;469308;252;27526;-80
2021/04/17 01:46:13;;;;;;;4.20;3.80;;;3.00;99.90;;;;;;469329;247;27578;-75
2021/04/17 01:48:14;;;;;;;3.87;3.58;;;3.00;99.90;;;;;;469334;247;27567;-80
2021/04/17 01:50:15;;;;;;;5.45;4.28;;;3.00;99.90;;;;;;469244;247;28226;-77
2021/04/17 01:52:17;;;;;;;3.90;3.60;;;3.00;99.90;;;;;;469333;247;28635;-77
2021/04/17 01:54:18;;;;;;;4.62;4.15;;;3.00;99.90;;;;;;469273;247;27557;-78
2021/04/17 01:56:19;;;;;;;5.78;4.00;;;3.00;99.90;;;;;;469334;247;27520;-78
2021/04/17 01:58:20;;;;;;;4.32;3.92;;;3.00;99.90;;;;;;469343;252;27540;-76
2021/04/17 02:00:22;;;;;;;3.92;3.62;;;2.90;99.90;;;;;;469294;247;27499;-79
2021/04/17 02:02:23;;;;;;;4.05;3.65;;;2.80;99.90;;;;;;469414;247;27606;-76
2021/04/17 02:04:24;;;;;;;4.50;4.10;;;2.80;99.90;;;;;;469314;248;27511;-76
2021/04/17 02:06:25;;;;;;;6.25;4.20;;;2.70;99.90;;;;;;469241;247;27559;-77
2021/04/17 02:08:27;;;;;;;4.18;3.78;;;2.70;99.90;;;;;;469400;247;27587;-79
2021/04/17 02:10:28;;;;;;;4.28;3.87;;;2.70;99.90;;;;;;469276;247;27566;-77
2021/04/17 02:12:29;;;;;;;5.28;4.40;;;2.60;99.90;;;;;;469238;253;27525;-77
2021/04/17 02:14:30;;;;;;;3.85;3.55;;;2.60;99.90;;;;;;469336;247;28137;-76
2021/04/17 02:16:32;;;;;;;4.85;4.00;;;2.60;99.90;;;;;;469317;248;28363;-77
2021/04/17 02:18:33;;;;;;;5.10;4.60;;;2.50;99.90;;;;;;469393;248;27856;-80
2021/04/17 02:20:34;;;;;;;4.45;4.03;;;2.40;99.90;;;;;;469290;247;27621;-79
2021/04/17 02:22:35;;;;;;;5.20;4.43;;;2.40;99.90;;;;;;469342;247;27629;-78
2021/04/17 02:24:37;;;;;;;6.10;4.70;;;2.40;99.90;;;;;;469298;247;27538;-80
2021/04/17 02:26:38;;;;;;;5.05;3.90;;;2.40;99.90;;;;;;469088;247;27954;-76
2021/04/17 02:28:39;;;;;;;4.25;3.85;;;2.40;99.90;;;;;;469236;247;27508;-77
2021/04/17 02:30:40;;;;;;;4.20;3.90;;;2.40;99.90;;;;;;469185;247;27530;-77
2021/04/17 02:32:42;;;;;;;5.07;3.60;;;2.40;99.90;;;;;;469283;252;27504;-79
2021/04/17 02:34:43;;;;;;;4.45;4.05;;;2.30;99.90;;;;;;469230;247;27527;-80
2021/04/17 02:36:44;;;;;;;4.47;4.07;;;2.40;99.90;;;;;;469248;247;27565;-76
2021/04/17 02:38:45;;;;;;;4.22;3.90;;;2.40;99.90;;;;;;469346;247;27662;-77
2021/04/17 02:40:47;;;;;;;4.50;4.10;;;2.20;99.90;;;;;;469250;247;27551;-77
2021/04/17 02:42:48;;;;;;;5.03;4.53;;;2.10;99.90;;;;;;469295;248;29507;-78
2021/04/17 02:44:49;;;;;;;4.25;3.85;;;2.10;99.90;;;;;;469310;247;28245;-78
2021/04/17 02:46:50;;;;;;;5.82;4.25;;;2.20;99.90;;;;;;469253;252;27528;-78
2021/04/17 02:48:52;;;;;;;4.47;4.03;;;2.20;99.90;;;;;;469251;248;27629;-78
2021/04/17 02:50:53;;;;;;;4.35;3.95;;;2.20;99.90;;;;;;469243;247;27500;-76
2021/04/17 02:52:54;;;;;;;4.25;3.85;;;2.20;99.90;;;;;;469302;253;27484;-77
2021/04/17 02:54:55;;;;;;;5.00;4.45;;;2.30;99.90;;;;;;469329;247;27673;-76
2021/04/17 02:56:57;;;;;;;4.57;4.00;;;2.30;99.90;;;;;;469230;253;27526;-76
2021/04/17 02:58:58;;;;;;;4.55;4.15;;;2.20;99.90;;;;;;469280;247;27488;-78
2021/04/17 03:00:59;;;;;;;4.80;4.10;;;2.30;99.90;;;;;;469297;247;27586;-77
2021/04/17 03:03:00;;;;;;;7.15;5.30;;;2.30;99.90;;;;;;469308;247;27635;-78
2021/04/17 03:05:02;;;;;;;7.47;5.68;;;2.30;99.90;;;;;;469312;252;27515;-79
2021/04/17 03:07:03;;;;;;;6.45;5.60;;;2.30;99.90;;;;;;469307;247;27563;-74
2021/04/17 03:09:04;;;;;;;6.15;5.55;;;2.20;99.90;;;;;;469366;247;28273;-76
2021/04/17 03:11:05;;;;;;;6.50;5.78;;;2.30;99.90;;;;;;469279;247;28381;-77
2021/04/17 03:13:07;;;;;;;8.80;6.78;;;2.30;99.90;;;;;;469387;247;27921;-77
2021/04/17 03:15:08;;;;;;;8.20;5.28;;;2.20;99.90;;;;;;469339;248;27534;-78
2021/04/17 03:17:09;;;;;;;8.68;5.82;;;2.20;99.90;;;;;;469325;247;27622;-79
2021/04/17 03:19:10;;;;;;;9.32;5.43;;;2.30;99.90;;;;;;469323;247;27930;-76
2021/04/17 03:21:12;;;;;;;9.15;5.62;;;2.30;99.90;;;;;;469348;248;27493;-77
2021/04/17 03:23:13;;;;;;;7.45;6.00;;;2.20;99.90;;;;;;469256;248;27512;-76
2021/04/17 03:25:14;;;;;;;7.50;6.35;;;2.20;99.90;;;;;;469330;248;27500;-79
2021/04/17 03:27:15;;;;;;;8.73;6.32;;;2.30;99.90;;;;;;469299;248;27619;-79
2021/04/17 03:29:17;;;;;;;5.90;4.90;;;2.30;99.90;;;;;;469423;247;27581;-76
2021/04/17 03:31:18;;;;;;;6.93;5.50;;;2.20;99.90;;;;;;469337;247;27635;-76
2021/04/17 03:33:19;;;;;;;5.55;4.93;;;2.20;99.90;;;;;;469518;247;28368;-76
2021/04/17 03:35:20;;;;;;;7.32;5.60;;;2.20;99.90;;;;;;469420;247;28393;-77
2021/04/17 03:37:22;;;;;;;7.15;6.10;;;2.20;99.90;;;;;;469300;248;28192;-79
2021/04/17 03:39:23;;;;;;;5.50;5.00;;;2.20;99.90;;;;;;469395;247;27483;-78
2021/04/17 03:41:24;;;;;;;6.70;4.95;;;2.20;99.90;;;;;;469262;247;27495;-76
2021/04/17 03:43:26;;;;;;;5.30;4.68;;;2.20;99.90;;;;;;469331;247;27899;-76
2021/04/17 03:45:29;;;;;;;6.20;5.57;;;2.20;99.90;;;;;;469244;247;27534;-79
2021/04/17 03:47:28;;;;;;;8.10;5.55;;;2.20;99.90;;;;;;469324;248;27508;-79
2021/04/17 03:49:29;;;;;;;6.57;5.35;;;2.20;99.90;;;;;;469235;247;27535;-82
2021/04/17 03:51:31;;;;;;;5.95;5.20;;;2.20;99.90;;;;;;469258;250;27566;-77
2021/04/17 03:53:32;;;;;;;5.37;4.87;;;2.10;99.90;;;;;;469348;247;27595;-76
2021/04/17 03:55:33;;;;;;;5.47;4.87;;;2.20;99.90;;;;;;469314;253;27575;-78
2021/04/17 03:57:34;;;;;;;5.72;5.12;;;2.20;99.90;;;;;;469371;247;27558;-77
2021/04/17 03:59:36;;;;;;;5.15;4.55;;;2.20;99.90;;;;;;469524;247;28031;-77
2021/04/17 04:01:37;;;;;;;8.88;5.70;;;2.10;99.90;;;;;;469486;247;28242;-77
2021/04/17 04:03:38;;;;;;;4.65;4.25;;;2.20;99.90;;;;;;469342;247;29742;-76
2021/04/17 04:05:39;;;;;;;7.72;5.57;;;2.20;99.90;;;;;;469406;247;27527;-75
2021/04/17 04:07:41;;;;;;;4.45;4.05;;;2.20;99.90;;;;;;469378;248;27806;-76
2021/04/17 04:09:42;;;;;;;6.03;4.80;;;2.20;99.90;;;;;;469396;247;27563;-75
2021/04/17 04:11:43;;;;;;;5.22;4.70;;;2.10;99.90;;;;;;469347;247;27639;-77
2021/04/17 04:13:44;;;;;;;6.07;4.75;;;2.20;99.90;;;;;;469430;248;27922;-77
2021/04/17 04:15:46;;;;;;;5.47;4.90;;;2.20;99.90;;;;;;469267;247;27526;-75
2021/04/17 04:17:47;;;;;;;5.55;4.80;;;2.10;99.90;;;;;;469323;248;27594;-76
2021/04/17 04:19:48;;;;;;;4.57;4.18;;;2.10;99.90;;;;;;469313;248;27536;-76
2021/04/17 04:21:49;;;;;;;4.75;4.35;;;2.00;99.90;;;;;;469370;248;27568;-75
2021/04/17 04:23:51;;;;;;;5.00;4.20;;;2.00;99.90;;;;;;469341;247;27629;-75
2021/04/17 04:25:52;;;;;;;4.95;4.45;;;2.00;99.90;;;;;;469389;253;28275;-78
2021/04/17 04:27:53;;;;;;;4.07;3.78;;;2.00;99.90;;;;;;469393;247;28231;-76
2021/04/17 04:29:54;;;;;;;4.95;4.45;;;2.00;99.90;;;;;;469271;247;28205;-75
2021/04/17 04:31:56;;;;;;;5.40;4.90;;;2.00;99.90;;;;;;469353;247;27578;-78
2021/04/17 04:33:57;;;;;;;6.20;4.62;;;2.10;99.90;;;;;;469345;247;27521;-76
2021/04/17 04:35:58;;;;;;;5.43;4.40;;;2.10;99.90;;;;;;469297;248;27496;-76
2021/04/17 04:37:59;;;;;;;8.75;5.50;;;2.10;99.90;;;;;;469334;247;28093;-77
2021/04/17 04:40:01;;;;;;;10.10;5.60;;;2.00;99.90;;;;;;469413;247;27543;-78
2021/04/17 04:42:02;;;;;;;5.90;4.93;;;1.90;99.90;;;;;;469291;247;27500;-79
2021/04/17 04:44:03;;;;;;;7.47;4.60;;;1.90;99.90;;;;;;469336;248;27612;-77
2021/04/17 04:46:04;;;;;;;6.80;4.65;;;1.90;99.90;;;;;;469386;247;27528;-79
2021/04/17 04:48:09;;;;;;;4.22;3.83;;;1.90;99.90;;;;;;469309;247;27594;-78
2021/04/17 04:50:07;;;;;;;4.60;4.20;;;2.00;99.90;;;;;;469231;247;27650;-78
2021/04/17 04:52:08;;;;;;;5.35;4.32;;;2.00;99.90;;;;;;469344;248;28322;-80
2021/04/17 04:54:09;;;;;;;6.37;4.53;;;2.00;99.90;;;;;;469334;248;28217;-79
2021/04/17 04:56:11;;;;;;;6.35;5.45;;;2.10;99.90;;;;;;469384;247;28205;-75
2021/04/17 04:58:12;;;;;;;5.30;4.80;;;2.00;99.90;;;;;;469321;247;28051;-78
2021/04/17 05:00:13;;;;;;;5.85;5.00;;;2.00;99.90;;;;;;469279;247;27487;-77
2021/04/17 05:02:14;;;;;;;6.22;4.35;;;2.00;99.90;;;;;;469273;248;27600;-76
2021/04/17 05:04:16;;;;;;;5.10;4.50;;;2.10;99.90;;;;;;469356;247;27523;-76
2021/04/17 05:06:17;;;;;;;5.82;5.00;;;2.10;99.90;;;;;;469358;253;27614;-75
2021/04/17 05:08:18;;;;;;;6.30;5.28;;;2.20;99.90;;;;;;469291;247;27603;-77
2021/04/17 05:10:20;;;;;;;6.28;4.80;;;2.20;99.90;;;;;;469361;247;27619;-76
2021/04/17 05:12:21;;;;;;;5.40;4.90;;;2.20;99.90;;;;;;469377;247;27606;-76
2021/04/17 05:14:22;;;;;;;5.90;5.30;;;2.30;99.90;;;;;;469333;247;27500;-78
2021/04/17 05:16:23;;;;;;;9.35;5.78;;;2.30;99.90;;;;;;469324;247;27622;-78
2021/04/17 05:18:24;;;;;;;5.40;4.85;;;2.30;99.90;;;;;;469339;247;27661;-76
2021/04/17 05:20:26;;;;;;;5.55;4.40;;;2.30;99.90;;;;;;469225;247;28182;-79
2021/04/17 05:22:27;;;;;;;5.97;4.57;;;2.40;99.90;;;;;;469390;252;28269;-78
2021/04/17 05:24:29;;;;;;;7.03;4.93;;;2.40;99.90;;;;;;469288;247;27531;-78
2021/04/17 05:26:29;;;;;;;5.37;4.90;;;2.40;99.90;;;;;;469230;247;27520;-77
2021/04/17 05:28:31;;;;;;;5.10;4.65;;;2.40;99.90;;;;;;468819;247;27483;-80
2021/04/17 05:30:32;;;;;;;6.00;4.90;;;2.40;99.90;;;;;;469214;247;27506;-77
2021/04/17 05:32:33;;;;;;;5.03;4.53;;;2.40;99.90;;;;;;469401;247;27500;-76
2021/04/17 05:34:34;;;;;;;4.85;4.32;;;2.40;99.90;;;;;;469484;247;27821;-76
2021/04/17 05:36:36;;;;;;;8.23;5.45;;;2.30;99.90;;;;;;469341;247;27511;-75
2021/04/17 05:38:37;;;;;;;9.52;5.60;;;2.30;99.90;;;;;;469329;248;27555;-77
2021/04/17 05:40:38;;;;;;;6.05;5.32;;;2.40;99.90;;;;;;469344;247;27595;-77
2021/04/17 05:42:39;;;;;;;6.05;5.10;;;2.30;99.90;;;;;;469434;247;27570;-77
2021/04/17 05:44:41;;;;;;;8.18;6.28;;;2.30;99.90;;;;;;469378;247;27531;-78
2021/04/17 05:46:42;;;;;;;6.28;5.07;;;2.40;99.90;;;;;;469465;248;28187;-77
2021/04/17 05:48:43;;;;;;;6.80;5.62;;;2.40;99.90;;;;;;468876;247;29407;-76
2021/04/17 05:50:44;;;;;;;7.60;5.60;;;2.40;99.90;;;;;;469321;247;28237;-75
2021/04/17 05:52:46;;;;;;;8.55;5.55;;;2.40;99.90;;;;;;469398;247;27511;-77
2021/04/17 05:54:47;;;;;;;7.22;5.87;;;2.50;99.90;;;;;;469361;247;27544;-77
2021/04/17 05:56:48;;;;;;;6.60;5.40;;;2.50;99.90;;;;;;469339;248;27531;-78
2021/04/17 05:58:49;;;;;;;8.88;5.68;;;2.60;99.90;;;;;;469401;247;27620;-77
2021/04/17 06:00:51;;;;;;;7.05;5.62;;;2.60;99.90;;;;;;469236;247;27892;-77
2021/04/17 06:02:52;;;;;;;6.40;5.60;;;2.80;99.90;;;;;;469312;247;27515;-79
2021/04/17 06:04:53;;;;;;;7.25;5.28;;;2.90;99.90;;;;;;469330;247;27604;-76
2021/04/17 06:06:54;;;;;;;8.18;6.00;;;3.00;99.90;;;;;;469262;247;27610;-77
2021/04/17 06:08:56;;;;;;;7.57;5.70;;;3.20;99.90;;;;;;469365;247;28226;-76
2021/04/17 06:10:57;;;;;;;7.85;4.78;;;3.30;99.90;;;;;;469364;247;28107;-77
2021/04/17 06:12:58;;;;;;;6.95;5.30;;;3.40;99.90;;;;;;469410;248;28271;-76
2021/04/17 06:14:59;;;;;;;6.90;5.03;;;3.40;99.90;;;;;;469358;247;27590;-77
2021/04/17 06:17:01;;;;;;;6.05;4.97;;;3.50;99.90;;;;;;469299;247;27540;-77
2021/04/17 06:19:02;;;;;;;5.12;4.60;;;3.60;99.90;;;;;;469280;247;27949;-76
2021/04/17 06:21:03;;;;;;;6.85;5.20;;;3.70;99.90;;;;;;469217;250;27507;-77
2021/04/17 06:23:04;;;;;;;5.75;4.82;;;3.70;99.90;;;;;;469369;252;27611;-79
2021/04/17 06:25:06;;;;;;;6.47;5.32;;;3.70;99.90;;;;;;469310;247;27503;-77
2021/04/17 06:27:07;;;;;;;8.00;4.60;;;3.70;99.90;;;;;;469259;247;28266;-76
2021/04/17 06:29:08;;;;;;;5.35;4.72;;;3.70;99.90;;;;;;469308;248;28240;-78
2021/04/17 06:31:09;;;;;;;5.65;5.07;;;3.70;99.90;;;;;;469378;247;27632;-79
2021/04/17 06:33:11;;;;;;;6.03;4.68;;;3.70;99.90;;;;;;469327;253;27993;-80
2021/04/17 06:35:12;;;;;;;5.55;5.05;;;3.70;99.90;;;;;;469380;247;27591;-78
2021/04/17 06:37:13;;;;;;;6.57;5.90;;;3.80;99.90;;;;;;469300;247;27591;-77
2021/04/17 06:39:14;;;;;;;7.40;5.00;;;3.90;99.90;;;;;;468870;247;27989;-77
2021/04/17 06:41:16;;;;;;;7.15;5.57;;;3.90;99.90;;;;;;469447;247;27568;-74
2021/04/17 06:43:17;;;;;;;7.00;5.22;;;4.00;99.90;;;;;;469812;248;28126;-74
2021/04/17 06:45:18;;;;;;;7.53;5.05;;;4.10;99.90;;;;;;469608;248;28061;-75
2021/04/17 06:47:19;;;;;;;9.68;6.50;;;4.20;99.90;;;;;;469860;252;27574;-76
2021/04/17 06:49:21;;;;;;;6.55;5.85;;;4.30;99.90;;;;;;469692;252;27560;-77
2021/04/17 06:51:22;;;;;;;6.32;5.65;;;4.50;99.90;;;;;;469952;250;27516;-77
2021/04/17 06:53:23;;;;;;;9.50;5.45;;;4.70;99.90;;;;;;469857;252;27382;-79
2021/04/17 06:55:24;;;;;;;11.88;5.60;;;4.90;99.90;;;;;;469930;252;27437;-77
2021/04/17 06:57:26;;;;;;;7.03;5.57;;;5.10;99.90;;;;;;469918;252;27956;-77
2021/04/17 06:59:27;;;;;;;8.30;5.75;;;5.20;99.90;;;;;;470048;252;29074;-79
2021/04/17 07:01:30;;;;;;;6.93;5.70;;;5.20;99.90;;;;;;469734;250;28076;-77
2021/04/17 07:03:29;;;;;;;5.82;5.00;;;5.30;99.90;;;;;;469922;252;27493;-78
2021/04/17 07:05:31;;;;;;;6.87;5.60;;;5.30;99.90;;;;;;469677;252;27532;-77
2021/04/17 07:07:32;;;;;;;11.98;6.25;;;5.30;99.90;;;;;;469924;252;27457;-78
2021/04/17 07:09:33;;;;;;;6.90;5.03;;;5.30;99.90;;;;;;469994;252;27389;-79
2021/04/17 07:11:35;;;;;;;8.65;4.95;;;5.30;99.90;;;;;;470130;250;28730;-75
2021/04/17 07:13:36;;;;;;;7.05;5.65;;;5.50;99.90;;;;;;470087;252;27863;-80
2021/04/17 07:15:37;;;;;;;7.60;5.47;;;5.60;99.90;;;;;;470076;252;27438;-75
2021/04/17 07:17:38;;;;;;;9.63;5.57;;;5.60;99.90;;;;;;470080;252;27402;-79
2021/04/17 07:19:40;;;;;;;5.93;5.10;;;5.70;99.90;;;;;;470104;252;27452;-79
2021/04/17 07:21:41;;;;;;;11.03;5.73;;;5.70;99.90;;;;;;470245;250;27386;-77
2021/04/17 07:23:42;;;;;;;9.37;5.60;;;5.70;99.90;;;;;;470232;252;28322;-78
2021/04/17 07:25:43;;;;;;;6.90;5.17;;;5.70;99.90;;;;;;470216;252;28005;-78
2021/04/17 07:27:45;;;;;;;7.47;5.50;;;5.80;99.90;;;;;;470027;252;28073;-77
2021/04/17 07:29:46;;;;;;;8.47;5.40;;;5.80;99.90;;;;;;469970;252;28595;-77
2021/04/17 07:31:47;;;;;;;5.77;5.00;;;5.80;99.90;;;;;;470215;250;28571;-79
2021/04/17 07:33:48;;;;;;;6.00;4.70;;;5.90;99.90;;;;;;470263;252;28866;-77
2021/04/17 07:35:51;;;;;;;6.35;4.65;;;5.90;99.90;;;;;;470175;252;28430;-76
2021/04/17 07:37:51;;;;;;;7.33;5.17;;;6.00;99.90;;;;;;470255;252;27366;-78
2021/04/17 07:39:52;;;;;;;5.33;4.70;;;6.20;99.90;;;;;;470191;252;27860;-76
2021/04/17 07:41:53;;;;;;;6.47;4.70;;;6.30;99.90;;;;;;470148;250;27941;-79
2021/04/17 07:43:55;;;;;;;5.40;4.80;;;6.30;99.90;;;;;;470202;252;28802;-78
2021/04/17 07:45:56;;;;;;;6.00;5.10;;;6.30;99.90;;;;;;470156;252;28767;-77
2021/04/17 07:48:00;;;;;;;5.20;4.67;;;6.20;99.90;;;;;;470127;252;28014;-75
2021/04/17 07:49:58;;;;;;;5.20;4.47;;;6.20;99.90;;;;;;470173;252;28122;-76
2021/04/17 07:52:00;;;;;;;6.23;4.87;;;6.40;99.90;;;;;;470268;250;27920;-77
2021/04/17 07:54:01;;;;;;;6.20;4.83;;;6.40;99.90;;;;;;470179;252;27966;-77
2021/04/17 07:56:02;;;;;;;8.70;4.70;;;6.20;99.90;;;;;;469937;252;27961;-78
2021/04/17 07:58:05;;;;;;;12.53;4.97;;;6.30;99.90;;;;;;469900;252;27931;-78
2021/04/17 08:00:05;;;;;;;13.17;5.40;;;6.40;99.90;;;;;;469885;252;28534;-75
2021/04/17 08:02:06;;;;;;;4.87;4.37;;;6.30;99.90;;;;;;470069;250;28309;-79
2021/04/17 08:04:07;;;;;;;7.60;4.10;;;6.60;99.90;;;;;;470069;252;28086;-76
2021/04/17 08:06:08;;;;;;;6.93;5.30;;;6.60;99.90;;;;;;470117;252;28434;-79
2021/04/17 08:08:10;;;;;;;5.83;5.03;;;6.60;99.90;;;;;;470051;252;28040;-77
2021/04/17 08:10:11;;;;;;;9.13;4.83;;;6.60;99.90;;;;;;470017;250;27676;-77
2021/04/17 08:12:12;;;;;;;5.90;4.80;;;6.60;99.90;;;;;;470083;252;28021;-78
2021/04/17 08:14:13;;;;;;;7.07;5.00;;;6.60;99.90;;;;;;470210;252;27843;-78
2021/04/17 08:16:16;;;;;;;5.30;4.20;;;6.60;99.90;;;;;;470221;252;27987;-79
2021/04/17 08:18:16;;;;;;;6.30;4.60;;;6.70;99.90;;;;;;470224;252;27855;-75
2021/04/17 08:20:17;;;;;;;8.07;4.97;;;6.80;99.90;;;;;;470125;250;28125;-75
2021/04/17 08:22:18;;;;;;;7.67;5.10;;;6.90;99.90;;;;;;470166;253;27900;-79
2021/04/17 08:24:20;;;;;;;7.50;5.17;;;6.90;99.90;;;;;;470270;252;27908;-78
2021/04/17 08:26:21;;;;;;;6.23;4.90;;;6.90;99.90;;;;;;470183;252;27973;-78
2021/04/17 08:28:22;;;;;;;8.60;4.77;;;6.80;99.90;;;;;;470165;252;27894;-76
2021/04/17 08:30:23;;;;;;;6.47;5.00;;;6.90;99.90;;;;;;470012;250;27537;-77
2021/04/17 08:32:25;;;;;;;6.63;5.53;;;6.90;99.90;;;;;;469952;252;27774;-79
2021/04/17 08:34:26;;;;;;;7.30;5.10;;;7.10;99.90;;;;;;469902;252;28426;-76
2021/04/17 08:36:27;;;;;;;6.23;4.87;;;7.00;99.90;;;;;;470068;252;28523;-80
2021/04/17 08:38:28;;;;;;;9.13;5.00;;;7.10;99.90;;;;;;470042;252;28343;-80
2021/04/17 08:40:30;;;;;;;7.50;5.80;;;7.10;99.90;;;;;;470114;250;28569;-76
2021/04/17 08:42:31;;;;;;;5.60;4.33;;;7.30;99.90;;;;;;470202;252;28327;-75
2021/04/17 08:44:32;;;;;;;10.93;5.30;;;7.40;99.90;;;;;;470322;252;28308;-76
2021/04/17 08:46:33;;;;;;;6.93;4.80;;;7.50;99.90;;;;;;470212;252;27851;-79
2021/04/17 08:48:35;;;;;;;5.80;4.57;;;7.40;99.90;;;;;;470115;252;28037;-79
2021/04/17 08:50:37;;;;;;;13.77;4.70;;;7.50;99.90;;;;;;470240;250;27861;-77
2021/04/17 08:52:37;;;;;;;6.63;4.13;;;7.50;99.90;;;;;;470266;252;27732;-78
2021/04/17 08:54:38;;;;;;;7.47;4.10;;;7.70;99.90;;;;;;470329;252;27951;-75
2021/04/17 08:56:40;;;;;;;7.50;4.97;;;8.00;99.90;;;;;;470314;253;27734;-77
2021/04/17 08:58:41;;;;;;;7.33;5.23;;;7.90;99.90;;;;;;470080;252;27777;-75
2021/04/17 09:00:42;;;;;;;9.67;4.87;;;7.80;99.90;;;;;;470211;249;27952;-76
2021/04/17 09:02:43;;;;;;;8.23;4.70;;;7.80;99.90;;;;;;470120;250;27837;-77
2021/04/17 09:04:45;;;;;;;7.40;5.07;;;7.60;99.90;;;;;;469886;252;27900;-76
2021/04/17 09:06:46;;;;;;;6.63;5.03;;;7.60;99.90;;;;;;469790;252;28098;-75
2021/04/17 09:08:47;;;;;;;6.80;4.70;;;7.50;99.90;;;;;;469884;248;28572;-76
2021/04/17 09:10:48;;;;;;;6.00;4.20;;;7.60;99.90;;;;;;469870;252;28837;-77
2021/04/17 09:12:49;;;;;;;5.13;4.50;;;7.70;99.90;;;;;;469658;252;28688;-75
2021/04/17 09:14:51;;;;;;;6.93;4.40;;;7.80;99.90;;;;;;469816;252;28398;-75
2021/04/17 09:16:52;;;;;;;7.27;4.40;;;7.90;99.90;;;;;;469856;252;28771;-77
2021/04/17 09:18:53;;;;;;;9.17;5.00;;;8.00;99.90;;;;;;469799;253;28068;-75
2021/04/17 09:20:56;;;;;;;7.37;4.43;;;8.10;99.90;;;;;;469663;250;27978;-77
2021/04/17 09:22:56;;;;;;;5.80;3.80;;;8.30;99.90;;;;;;469693;253;27977;-77
2021/04/17 09:24:57;;;;;;;6.63;4.10;;;8.50;99.90;;;;;;469950;252;28049;-75
2021/04/17 09:26:58;;;;;;;4.27;3.70;;;8.70;99.90;;;;;;469884;252;27992;-75
2021/04/17 09:28:59;;;;;;;4.33;3.73;;;8.80;99.90;;;;;;469784;253;27976;-77
2021/04/17 09:31:01;;;;;;;4.37;3.93;;;8.70;99.90;;;;;;469831;250;27969;-76
2021/04/17 09:33:02;;;;;;;5.10;4.30;;;8.60;99.90;;;;;;469805;252;27984;-79
2021/04/17 09:35:03;;;;;;;5.53;3.93;;;8.60;99.90;;;;;;469745;253;27941;-75
2021/04/17 09:37:04;;;;;;;4.57;4.03;;;8.40;99.90;;;;;;469893;252;27922;-77
2021/04/17 09:39:06;;;;;;;4.47;4.03;;;8.30;99.90;;;;;;469880;252;27985;-76
2021/04/17 09:41:07;;;;;;;5.40;3.93;;;8.40;99.90;;;;;;469813;250;27956;-76
2021/04/17 09:43:08;;;;;;;4.50;4.00;;;8.80;99.90;;;;;;469804;252;28319;-75
2021/04/17 09:45:10;;;;;;;4.33;3.80;;;8.90;99.90;;;;;;469855;253;29412;-80
2021/04/17 09:47:11;;;;;;;5.50;3.53;;;8.90;99.90;;;;;;469878;253;28454;-75
2021/04/17 09:49:12;;;;;;;6.77;3.70;;;8.70;99.90;;;;;;469880;253;28733;-75
2021/04/17 09:51:13;;;;;;;5.40;3.67;;;8.70;99.90;;;;;;469808;250;28466;-75
2021/04/17 09:53:14;;;;;;;4.07;3.70;;;8.70;99.90;;;;;;469840;252;27745;-75
2021/04/17 09:55:16;;;;;;;5.10;3.37;;;8.80;99.90;;;;;;469949;252;28132;-78
2021/04/17 09:57:17;;;;;;;4.70;3.30;;;8.70;99.90;;;;;;469958;252;28028;-75
2021/04/17 09:59:18;;;;;;;5.03;3.70;;;8.80;99.90;;;;;;469880;253;27973;-75
2021/04/17 10:01:20;;;;;;;7.40;3.63;;;8.80;99.90;;;;;;469909;250;28019;-76
2021/04/17 10:03:21;;;;;;;8.43;4.27;;;8.70;99.90;;;;;;469891;252;27975;-75
2021/04/17 10:05:22;;;;;;;5.20;4.00;;;8.30;99.90;;;;;;469733;252;27496;-77
2021/04/17 10:07:23;;;;;;;6.00;4.13;;;8.20;99.90;;;;;;469773;252;27969;-75
2021/04/17 10:09:24;;;;;;;5.77;4.30;;;8.10;99.90;;;;;;469790;253;28029;-76
2021/04/17 10:11:26;;;;;;;6.60;3.70;;;8.20;99.90;;;;;;469907;250;27805;-77
2021/04/17 10:13:27;;;;;;;5.83;4.10;;;8.30;99.90;;;;;;469885;252;28064;-76
2021/04/17 10:15:28;;;;;;;8.03;4.37;;;8.10;99.90;;;;;;469884;253;27834;-74
2021/04/17 10:17:29;;;;;;;6.00;3.83;;;8.40;99.90;;;;;;469840;252;27948;-75
2021/04/17 10:19:31;;;;;;;4.53;3.80;;;8.60;99.90;;;;;;469832;253;28487;-75
2021/04/17 10:21:32;;;;;;;4.30;3.63;;;8.70;99.90;;;;;;469843;250;28424;-77
2021/04/17 10:23:33;;;;;;;5.40;4.13;;;8.80;99.90;;;;;;469751;252;28506;-76
2021/04/17 10:25:34;;;;;;;5.40;4.00;;;8.70;99.90;;;;;;469763;252;28338;-75
2021/04/17 10:27:37;;;;;;;5.50;4.30;;;8.70;99.90;;;;;;469777;253;28541;-75
2021/04/17 10:29:37;;;;;;;4.50;3.50;;;8.40;99.90;;;;;;469804;253;27820;-76
2021/04/17 10:31:38;;;;;;;5.97;3.90;;;8.60;99.90;;;;;;469822;250;27883;-76
2021/04/17 10:33:39;;;;;;;4.40;3.70;;;8.90;99.90;;;;;;469951;253;28046;-77
2021/04/17 10:35:41;;;;;;;4.60;3.60;;;8.80;99.90;;;;;;469784;252;27901;-74
2021/04/17 10:37:43;;;;;;;6.07;4.33;;;8.80;99.90;;;;;;469830;253;27947;-75
2021/04/17 10:39:43;;;;;;;5.87;4.20;;;8.90;99.90;;;;;;469888;253;28013;-76